Rancho Mirage, CA (92270)

4:18 PM PDT on October 25, 2014 (GMT -0700)
DesertWeather com | Change Station
CLOSE
Current Station
Personal Weather Station
Location: Thousand Palms, CA
Elevation: 275 ft
Nearby Weather Stations

Elev 275 ft 33.82 °N, 116.40 °W | Updated 2 minutes ago

Partly Cloudy
Partly Cloudy
92.7 °F
Feels Like 89 °F
N
10.0
Wind Variable Wind from WNW
Gusts 0.0 mph

Today
High -- | Low -- °F
--% Chance of Precip.
Yesterday
High -- | Low -- °F
Precip. -- in
6:58 AM 6:00 PM
Waxing Crescent, 5% visible
Pressure 29.89 in
Visibility 10.0 miles
Clouds Few 12000 ft
Heat Index 89 °F
Dew Point 47 °F
Humidity 21%
Rainfall 0.00 in
Snow Depth Not available.
UV 2 out of 12
Pollen 3.90 out of 12
Ozone Good
Flu Activity Sporadic
METAR KPSP 252253Z 28005KT 10SM FEW120 34/08 A2990 RMK AO2 SLP122 T03440078

More Conditions Fewer Conditions

Pressure 29.89 in
Visibility 10.0 miles
Clouds Few 12000 ft
Heat Index 89 °F
Dew Point 47 °F
Humidity 21%
Rainfall 0.00 in
Snow Depth Not available.
UV 2 out of 12
Pollen 3.90 out of 12
Ozone Good
Flu Activity Sporadic
METAR KPSP 252253Z 28005KT 10SM FEW120 34/08 A2990 RMK AO2 SLP122 T03440078

More Conditions Fewer Conditions

10-Day Weather Forecast

Almanac

Astronomy

Oct. 25, 2014 Rise Set
Actual Time 6:58 AM PDT 6:00 PM PDT
Civil Twilight 6:33 AM PDT 6:25 PM PDT
Nautical Twilight 6:04 AM PDT 6:54 PM PDT
Astronomical Twilight 5:35 AM PDT 7:23 PM PDT
Moon 8:38 AM PDT 7:30 PM PDT
Length of Visible Light 11h 52m
Length of Day
11h 01m
Tomorrow will be 1m 55s shorter.
Waxing Crescent, 5% of the Moon is Illuminated
Today
Waxing Crescent
Oct 30
First Quarter
Nov 6
Full
Nov 14
Last Quarter
Nov 22
New

Today's Extremes

State Highs State Lows

Community

WunderPhotos

Upload Photos

1,765,024 photos uploaded!

Nearby

Air Quality

  Air Quality AQ Index Pollutant
Yesterday Moderate
OZONE
Yesterday Good
PM10
Current Good
OZONE
Sunday Good
PM10
Sunday Moderate
OZONE
Sunday Good
CO
Sunday Good
NO2

Snow Depth

Station Depth Elevation
Leavitt Lake 0 in 9400 ft
Leavitt Meadows 1 in 7200 ft
Summit Meadow 0 in 9122 ft
Monitor Pass 0 in 8350 ft
Burnside Lake 0 in 8139 ft

Earthquake Activity

City Distance Mag. Time & Date
Barstow, California 82 miles 2.9 2:48 PM PDT
2014-10-25
Running Springs, California 50 miles 3.1 4:07 AM PDT
2014-10-25
Brea, California 85 miles 2.9 3:35 PM PDT
2014-10-23
Brea, California 85 miles 2.8 3:34 PM PDT
2014-10-23
Minimum magnitude displayed is 2.5.

Coastal Water Temperatures

Place Temperature
No Stations Reporting

Nearby Weather Stations